sensor_id;sensor_type;location;lat;lon;timestamp;temperature;humidity
33207;DHT22;19565;46.602;11.534;2022-12-31T00:00:32;6.20;99.90
33207;DHT22;19565;46.602;11.534;2022-12-31T00:03:03;6.20;99.90
33207;DHT22;19565;46.602;11.534;2022-12-31T00:05:34;6.30;99.90
33207;DHT22;19565;46.602;11.534;2022-12-31T00:08:03;6.30;99.90
33207;DHT22;19565;46.602;11.534;2022-12-31T00:10:31;6.30;99.90
33207;DHT22;19565;46.602;11.534;2022-12-31T00:13:10;6.30;99.90
33207;DHT22;19565;46.602;11.534;2022-12-31T00:15:40;6.40;99.90
33207;DHT22;19565;46.602;11.534;2022-12-31T00:18:09;6.50;99.90
33207;DHT22;19565;46.602;11.534;2022-12-31T00:20:40;6.40;99.90
33207;DHT22;19565;46.602;11.534;2022-12-31T00:23:09;6.40;99.90
33207;DHT22;19565;46.602;11.534;2022-12-31T00:25:37;6.30;99.90
33207;DHT22;19565;46.602;11.534;2022-12-31T00:28:05;6.40;99.90
33207;DHT22;19565;46.602;11.534;2022-12-31T00:30:33;6.40;99.90
33207;DHT22;19565;46.602;11.534;2022-12-31T00:33:01;6.40;99.90
33207;DHT22;19565;46.602;11.534;2022-12-31T00:35:29;6.40;99.90
33207;DHT22;19565;46.602;11.534;2022-12-31T00:37:59;6.40;99.90
33207;DHT22;19565;46.602;11.534;2022-12-31T00:40:27;6.40;99.90
33207;DHT22;19565;46.602;11.534;2022-12-31T00:42:55;6.40;99.90
33207;DHT22;19565;46.602;11.534;2022-12-31T00:45:23;6.50;99.90
33207;DHT22;19565;46.602;11.534;2022-12-31T00:47:51;6.50;99.90
33207;DHT22;19565;46.602;11.534;2022-12-31T00:50:19;6.60;99.90
33207;DHT22;19565;46.602;11.534;2022-12-31T00:52:47;6.60;99.90
33207;DHT22;19565;46.602;11.534;2022-12-31T00:55:17;6.60;99.90
33207;DHT22;19565;46.602;11.534;2022-12-31T00:57:45;6.60;99.90
33207;DHT22;19565;46.602;11.534;2022-12-31T01:00:14;6.60;99.90
33207;DHT22;19565;46.602;11.534;2022-12-31T01:02:42;6.60;99.90
33207;DHT22;19565;46.602;11.534;2022-12-31T01:05:11;6.60;99.90
33207;DHT22;19565;46.602;11.534;2022-12-31T01:07:39;6.50;99.90
33207;DHT22;19565;46.602;11.534;2022-12-31T01:10:07;6.50;99.90
33207;DHT22;19565;46.602;11.534;2022-12-31T01:12:37;6.50;99.90
33207;DHT22;19565;46.602;11.534;2022-12-31T01:15:06;6.50;99.90
33207;DHT22;19565;46.602;11.534;2022-12-31T01:17:34;6.50;99.90
33207;DHT22;19565;46.602;11.534;2022-12-31T01:20:02;6.60;99.90
33207;DHT22;19565;46.602;11.534;2022-12-31T01:22:30;6.60;99.90
33207;DHT22;19565;46.602;11.534;2022-12-31T01:24:58;6.60;99.90
33207;DHT22;19565;46.602;11.534;2022-12-31T01:27:26;6.50;99.90
33207;DHT22;19565;46.602;11.534;2022-12-31T01:29:56;6.40;99.90
33207;DHT22;19565;46.602;11.534;2022-12-31T01:32:24;6.50;99.90
33207;DHT22;19565;46.602;11.534;2022-12-31T01:34:52;6.50;99.90
33207;DHT22;19565;46.602;11.534;2022-12-31T01:37:20;6.50;99.90
33207;DHT22;19565;46.602;11.534;2022-12-31T01:39:48;6.50;99.90
33207;DHT22;19565;46.602;11.534;2022-12-31T01:42:16;6.50;99.90
33207;DHT22;19565;46.602;11.534;2022-12-31T01:44:51;6.50;99.90
33207;DHT22;19565;46.602;11.534;2022-12-31T01:47:34;6.50;99.90
33207;DHT22;19565;46.602;11.534;2022-12-31T01:50:09;6.50;99.90
33207;DHT22;19565;46.602;11.534;2022-12-31T01:52:40;6.50;99.90
33207;DHT22;19565;46.602;11.534;2022-12-31T01:55:14;6.50;99.90
33207;DHT22;19565;46.602;11.534;2022-12-31T01:57:43;6.50;99.90
33207;DHT22;19565;46.602;11.534;2022-12-31T02:00:13;6.50;99.90
33207;DHT22;19565;46.602;11.534;2022-12-31T02:02:43;6.50;99.90
33207;DHT22;19565;46.602;11.534;2022-12-31T02:05:17;6.50;99.90
33207;DHT22;19565;46.602;11.534;2022-12-31T02:07:46;6.50;99.90
33207;DHT22;19565;46.602;11.534;2022-12-31T02:10:15;6.40;99.90
33207;DHT22;19565;46.602;11.534;2022-12-31T02:12:43;6.40;99.90
33207;DHT22;19565;46.602;11.534;2022-12-31T02:15:11;6.40;99.90
33207;DHT22;19565;46.602;11.534;2022-12-31T02:17:46;6.40;99.90
33207;DHT22;19565;46.602;11.534;2022-12-31T02:20:38;6.40;99.90
33207;DHT22;19565;46.602;11.534;2022-12-31T02:23:33;6.40;99.90
33207;DHT22;19565;46.602;11.534;2022-12-31T02:26:26;6.50;99.90
33207;DHT22;19565;46.602;11.534;2022-12-31T02:32:13;6.50;99.90
33207;DHT22;19565;46.602;11.534;2022-12-31T02:34:46;6.50;99.90
33207;DHT22;19565;46.602;11.534;2022-12-31T02:37:15;6.50;99.90
33207;DHT22;19565;46.602;11.534;2022-12-31T02:39:45;6.50;99.90
33207;DHT22;19565;46.602;11.534;2022-12-31T02:42:14;6.50;99.90
33207;DHT22;19565;46.602;11.534;2022-12-31T02:44:42;6.50;99.90
33207;DHT22;19565;46.602;11.534;2022-12-31T02:47:24;6.40;99.90
33207;DHT22;19565;46.602;11.534;2022-12-31T02:50:10;6.50;99.90
33207;DHT22;19565;46.602;11.534;2022-12-31T02:52:47;6.50;99.90
33207;DHT22;19565;46.602;11.534;2022-12-31T02:55:26;6.50;99.90
33207;DHT22;19565;46.602;11.534;2022-12-31T02:58:06;6.50;99.90
33207;DHT22;19565;46.602;11.534;2022-12-31T03:00:40;6.50;99.90
33207;DHT22;19565;46.602;11.534;2022-12-31T03:03:26;6.40;99.90
33207;DHT22;19565;46.602;11.534;2022-12-31T03:05:55;6.40;99.90
33207;DHT22;19565;46.602;11.534;2022-12-31T03:08:25;6.30;99.90
33207;DHT22;19565;46.602;11.534;2022-12-31T03:10:53;6.30;99.90
33207;DHT22;19565;46.602;11.534;2022-12-31T03:13:23;6.30;99.90
33207;DHT22;19565;46.602;11.534;2022-12-31T03:15:50;6.30;99.90
33207;DHT22;19565;46.602;11.534;2022-12-31T03:18:18;6.40;99.90
33207;DHT22;19565;46.602;11.534;2022-12-31T03:21:12;6.30;99.90
33207;DHT22;19565;46.602;11.534;2022-12-31T03:23:58;6.30;99.90
33207;DHT22;19565;46.602;11.534;2022-12-31T03:26:43;6.40;99.90
33207;DHT22;19565;46.602;11.534;2022-12-31T03:29:11;6.30;99.90
33207;DHT22;19565;46.602;11.534;2022-12-31T03:31:39;6.40;99.90
33207;DHT22;19565;46.602;11.534;2022-12-31T03:34:07;6.40;99.90
33207;DHT22;19565;46.602;11.534;2022-12-31T03:36:37;6.40;99.90
33207;DHT22;19565;46.602;11.534;2022-12-31T03:39:05;6.40;99.90
33207;DHT22;19565;46.602;11.534;2022-12-31T03:41:33;6.40;99.90
33207;DHT22;19565;46.602;11.534;2022-12-31T03:44:01;6.40;99.90
33207;DHT22;19565;46.602;11.534;2022-12-31T03:46:29;6.40;99.90
33207;DHT22;19565;46.602;11.534;2022-12-31T03:48:57;6.30;99.90
33207;DHT22;19565;46.602;11.534;2022-12-31T03:51:25;6.20;99.90
33207;DHT22;19565;46.602;11.534;2022-12-31T03:53:54;6.20;99.90
33207;DHT22;19565;46.602;11.534;2022-12-31T03:56:22;6.10;99.90
33207;DHT22;19565;46.602;11.534;2022-12-31T03:58:50;6.20;99.90
33207;DHT22;19565;46.602;11.534;2022-12-31T04:01:18;6.20;99.90
33207;DHT22;19565;46.602;11.534;2022-12-31T04:03:51;6.30;99.90
33207;DHT22;19565;46.602;11.534;2022-12-31T04:06:19;6.20;99.90
33207;DHT22;19565;46.602;11.534;2022-12-31T04:08:47;6.10;99.90
33207;DHT22;19565;46.602;11.534;2022-12-31T04:11:16;6.20;99.90
33207;DHT22;19565;46.602;11.534;2022-12-31T04:13:46;6.20;99.90
33207;DHT22;19565;46.602;11.534;2022-12-31T04:16:14;6.30;99.90
33207;DHT22;19565;46.602;11.534;2022-12-31T04:18:42;6.30;99.90
33207;DHT22;19565;46.602;11.534;2022-12-31T04:21:10;6.30;99.90
33207;DHT22;19565;46.602;11.534;2022-12-31T04:23:38;6.30;99.90
33207;DHT22;19565;46.602;11.534;2022-12-31T04:26:07;6.30;99.90
33207;DHT22;19565;46.602;11.534;2022-12-31T04:28:36;6.20;99.90
33207;DHT22;19565;46.602;11.534;2022-12-31T04:31:04;6.20;99.90
33207;DHT22;19565;46.602;11.534;2022-12-31T04:33:34;6.30;99.90
33207;DHT22;19565;46.602;11.534;2022-12-31T04:36:03;6.20;99.90
33207;DHT22;19565;46.602;11.534;2022-12-31T04:38:32;6.20;99.90
33207;DHT22;19565;46.602;11.534;2022-12-31T04:41:02;6.20;99.90
33207;DHT22;19565;46.602;11.534;2022-12-31T04:43:48;6.20;99.90
33207;DHT22;19565;46.602;11.534;2022-12-31T04:46:19;6.10;99.90
33207;DHT22;19565;46.602;11.534;2022-12-31T04:48:47;6.10;99.90
33207;DHT22;19565;46.602;11.534;2022-12-31T04:51:16;6.10;99.90
33207;DHT22;19565;46.602;11.534;2022-12-31T04:53:44;6.00;99.90
33207;DHT22;19565;46.602;11.534;2022-12-31T04:56:12;6.00;99.90
33207;DHT22;19565;46.602;11.534;2022-12-31T04:58:41;6.00;99.90
33207;DHT22;19565;46.602;11.534;2022-12-31T05:01:11;5.90;99.90
33207;DHT22;19565;46.602;11.534;2022-12-31T05:03:39;6.00;99.90
33207;DHT22;19565;46.602;11.534;2022-12-31T05:06:10;5.90;99.90
33207;DHT22;19565;46.602;11.534;2022-12-31T05:08:39;5.90;99.90
33207;DHT22;19565;46.602;11.534;2022-12-31T05:11:07;5.90;99.90
33207;DHT22;19565;46.602;11.534;2022-12-31T05:13:35;5.90;99.90
33207;DHT22;19565;46.602;11.534;2022-12-31T05:16:04;5.90;99.90
33207;DHT22;19565;46.602;11.534;2022-12-31T05:18:34;5.90;99.90
33207;DHT22;19565;46.602;11.534;2022-12-31T05:21:03;5.90;99.90
33207;DHT22;19565;46.602;11.534;2022-12-31T05:23:31;5.90;99.90
33207;DHT22;19565;46.602;11.534;2022-12-31T05:25:59;5.90;99.90
33207;DHT22;19565;46.602;11.534;2022-12-31T05:28:27;5.90;99.90
33207;DHT22;19565;46.602;11.534;2022-12-31T05:30:55;5.90;99.90
33207;DHT22;19565;46.602;11.534;2022-12-31T05:33:23;5.90;99.90
33207;DHT22;19565;46.602;11.534;2022-12-31T05:35:53;5.80;99.90
33207;DHT22;19565;46.602;11.534;2022-12-31T05:38:23;5.50;99.90
33207;DHT22;19565;46.602;11.534;2022-12-31T05:40:58;5.60;99.90
33207;DHT22;19565;46.602;11.534;2022-12-31T05:43:26;5.70;99.90
33207;DHT22;19565;46.602;11.534;2022-12-31T05:45:54;5.60;99.90
33207;DHT22;19565;46.602;11.534;2022-12-31T05:48:23;5.50;99.90
33207;DHT22;19565;46.602;11.534;2022-12-31T05:50:51;5.50;99.90
33207;DHT22;19565;46.602;11.534;2022-12-31T05:53:20;5.50;99.90
33207;DHT22;19565;46.602;11.534;2022-12-31T05:55:48;5.60;99.90
33207;DHT22;19565;46.602;11.534;2022-12-31T05:58:17;5.60;99.90
33207;DHT22;19565;46.602;11.534;2022-12-31T06:00:45;5.70;99.90
33207;DHT22;19565;46.602;11.534;2022-12-31T06:03:13;5.70;99.90
33207;DHT22;19565;46.602;11.534;2022-12-31T06:05:42;5.70;99.90
33207;DHT22;19565;46.602;11.534;2022-12-31T06:08:10;5.70;99.90
33207;DHT22;19565;46.602;11.534;2022-12-31T06:10:40;5.60;99.90
33207;DHT22;19565;46.602;11.534;2022-12-31T06:13:08;5.60;99.90
33207;DHT22;19565;46.602;11.534;2022-12-31T06:15:37;5.70;99.90
33207;DHT22;19565;46.602;11.534;2022-12-31T06:18:06;5.70;99.90
33207;DHT22;19565;46.602;11.534;2022-12-31T06:20:35;5.70;99.90
33207;DHT22;19565;46.602;11.534;2022-12-31T06:23:05;5.70;99.90
33207;DHT22;19565;46.602;11.534;2022-12-31T06:25:33;5.60;99.90
33207;DHT22;19565;46.602;11.534;2022-12-31T06:28:04;5.60;99.90
33207;DHT22;19565;46.602;11.534;2022-12-31T06:30:32;5.60;99.90
33207;DHT22;19565;46.602;11.534;2022-12-31T06:33:00;5.60;99.90
33207;DHT22;19565;46.602;11.534;2022-12-31T06:35:28;5.60;99.90
33207;DHT22;19565;46.602;11.534;2022-12-31T06:37:56;5.60;99.90
33207;DHT22;19565;46.602;11.534;2022-12-31T06:40:24;5.60;99.90
33207;DHT22;19565;46.602;11.534;2022-12-31T06:42:52;5.60;99.90
33207;DHT22;19565;46.602;11.534;2022-12-31T06:45:27;5.60;99.90
33207;DHT22;19565;46.602;11.534;2022-12-31T06:47:55;5.60;99.90
33207;DHT22;19565;46.602;11.534;2022-12-31T06:50:23;5.70;99.90
33207;DHT22;19565;46.602;11.534;2022-12-31T06:52:51;5.60;99.90
33207;DHT22;19565;46.602;11.534;2022-12-31T06:55:20;5.70;99.90
33207;DHT22;19565;46.602;11.534;2022-12-31T06:57:48;5.60;99.90
33207;DHT22;19565;46.602;11.534;2022-12-31T07:00:17;5.60;99.90
33207;DHT22;19565;46.602;11.534;2022-12-31T07:03:16;5.70;99.90
33207;DHT22;19565;46.602;11.534;2022-12-31T07:05:49;5.60;99.90
33207;DHT22;19565;46.602;11.534;2022-12-31T07:08:38;5.60;99.90
33207;DHT22;19565;46.602;11.534;2022-12-31T07:11:13;5.60;99.90
33207;DHT22;19565;46.602;11.534;2022-12-31T07:13:53;5.50;99.90
33207;DHT22;19565;46.602;11.534;2022-12-31T07:16:32;5.50;99.90
33207;DHT22;19565;46.602;11.534;2022-12-31T07:19:16;5.50;99.90
33207;DHT22;19565;46.602;11.534;2022-12-31T07:21:48;5.60;99.90
33207;DHT22;19565;46.602;11.534;2022-12-31T07:24:18;5.50;99.90
33207;DHT22;19565;46.602;11.534;2022-12-31T07:26:55;5.50;99.90
33207;DHT22;19565;46.602;11.534;2022-12-31T07:29:36;5.50;99.90
33207;DHT22;19565;46.602;11.534;2022-12-31T07:32:16;5.50;99.90
33207;DHT22;19565;46.602;11.534;2022-12-31T07:34:57;5.50;99.90
33207;DHT22;19565;46.602;11.534;2022-12-31T07:37:33;5.50;99.90
33207;DHT22;19565;46.602;11.534;2022-12-31T07:40:10;5.50;99.90
33207;DHT22;19565;46.602;11.534;2022-12-31T07:42:55;5.50;99.90
33207;DHT22;19565;46.602;11.534;2022-12-31T07:45:28;5.50;99.90
33207;DHT22;19565;46.602;11.534;2022-12-31T07:47:59;5.50;99.90
33207;DHT22;19565;46.602;11.534;2022-12-31T07:50:30;5.50;99.90
33207;DHT22;19565;46.602;11.534;2022-12-31T07:52:59;5.50;99.90
33207;DHT22;19565;46.602;11.534;2022-12-31T07:55:27;5.50;99.90
33207;DHT22;19565;46.602;11.534;2022-12-31T07:58:01;5.60;99.90
33207;DHT22;19565;46.602;11.534;2022-12-31T08:00:31;5.60;99.90
33207;DHT22;19565;46.602;11.534;2022-12-31T08:03:10;5.60;99.90
33207;DHT22;19565;46.602;11.534;2022-12-31T08:05:49;5.60;99.90
33207;DHT22;19565;46.602;11.534;2022-12-31T08:08:27;5.60;99.90
33207;DHT22;19565;46.602;11.534;2022-12-31T08:11:08;5.60;99.90
33207;DHT22;19565;46.602;11.534;2022-12-31T08:13:39;5.60;99.90
33207;DHT22;19565;46.602;11.534;2022-12-31T08:16:10;5.60;99.90
33207;DHT22;19565;46.602;11.534;2022-12-31T08:18:39;5.60;99.90
33207;DHT22;19565;46.602;11.534;2022-12-31T08:21:18;5.60;99.90
33207;DHT22;19565;46.602;11.534;2022-12-31T08:23:56;5.70;99.90
33207;DHT22;19565;46.602;11.534;2022-12-31T08:26:34;5.70;99.90
33207;DHT22;19565;46.602;11.534;2022-12-31T08:29:14;5.70;99.90
33207;DHT22;19565;46.602;11.534;2022-12-31T08:31:54;5.80;99.90
33207;DHT22;19565;46.602;11.534;2022-12-31T08:34:29;5.80;99.90
33207;DHT22;19565;46.602;11.534;2022-12-31T08:37:09;5.90;99.90
33207;DHT22;19565;46.602;11.534;2022-12-31T08:39:50;5.90;99.90
33207;DHT22;19565;46.602;11.534;2022-12-31T08:42:26;5.90;99.90
33207;DHT22;19565;46.602;11.534;2022-12-31T08:45:02;5.90;99.90
33207;DHT22;19565;46.602;11.534;2022-12-31T08:47:37;6.00;99.90
33207;DHT22;19565;46.602;11.534;2022-12-31T08:50:13;5.90;99.90
33207;DHT22;19565;46.602;11.534;2022-12-31T08:52:44;6.00;99.90
33207;DHT22;19565;46.602;11.534;2022-12-31T08:55:14;6.00;99.90
33207;DHT22;19565;46.602;11.534;2022-12-31T08:57:50;6.10;99.90
33207;DHT22;19565;46.602;11.534;2022-12-31T09:00:22;6.10;99.90
33207;DHT22;19565;46.602;11.534;2022-12-31T09:03:26;6.10;99.90
33207;DHT22;19565;46.602;11.534;2022-12-31T09:06:03;6.20;99.90
33207;DHT22;19565;46.602;11.534;2022-12-31T09:08:43;6.20;99.90
33207;DHT22;19565;46.602;11.534;2022-12-31T09:11:17;6.20;99.90
33207;DHT22;19565;46.602;11.534;2022-12-31T09:14:16;6.30;99.90
33207;DHT22;19565;46.602;11.534;2022-12-31T09:16:54;6.30;99.90
33207;DHT22;19565;46.602;11.534;2022-12-31T09:19:24;6.40;99.90
33207;DHT22;19565;46.602;11.534;2022-12-31T09:21:53;6.30;99.90
33207;DHT22;19565;46.602;11.534;2022-12-31T09:24:23;6.20;99.90
33207;DHT22;19565;46.602;11.534;2022-12-31T09:27:00;6.10;99.90
33207;DHT22;19565;46.602;11.534;2022-12-31T09:29:42;6.10;99.90
33207;DHT22;19565;46.602;11.534;2022-12-31T09:32:18;6.10;99.90
33207;DHT22;19565;46.602;11.534;2022-12-31T09:34:54;6.20;99.90
33207;DHT22;19565;46.602;11.534;2022-12-31T09:37:34;6.30;99.90
33207;DHT22;19565;46.602;11.534;2022-12-31T09:43:09;6.50;99.90
33207;DHT22;19565;46.602;11.534;2022-12-31T09:48:55;6.60;99.90
33207;DHT22;19565;46.602;11.534;2022-12-31T09:51:31;6.70;99.90
33207;DHT22;19565;46.602;11.534;2022-12-31T09:57:10;6.70;99.90
33207;DHT22;19565;46.602;11.534;2022-12-31T09:59:47;6.80;99.90
33207;DHT22;19565;46.602;11.534;2022-12-31T10:02:27;6.90;99.90
33207;DHT22;19565;46.602;11.534;2022-12-31T10:05:22;7.00;99.90
33207;DHT22;19565;46.602;11.534;2022-12-31T10:07:59;7.00;99.90
33207;DHT22;19565;46.602;11.534;2022-12-31T10:10:40;7.10;99.90
33207;DHT22;19565;46.602;11.534;2022-12-31T10:13:25;7.20;99.90
33207;DHT22;19565;46.602;11.534;2022-12-31T10:16:15;7.20;99.90
33207;DHT22;19565;46.602;11.534;2022-12-31T10:19:02;7.30;99.90
33207;DHT22;19565;46.602;11.534;2022-12-31T10:21:40;7.30;99.90
33207;DHT22;19565;46.602;11.534;2022-12-31T10:24:33;7.40;99.90
33207;DHT22;19565;46.602;11.534;2022-12-31T10:27:18;7.40;99.90
33207;DHT22;19565;46.602;11.534;2022-12-31T10:29:57;7.60;99.90
33207;DHT22;19565;46.602;11.534;2022-12-31T10:32:32;7.60;99.90
33207;DHT22;19565;46.602;11.534;2022-12-31T10:35:13;7.70;99.90
33207;DHT22;19565;46.602;11.534;2022-12-31T10:37:51;7.70;99.90
33207;DHT22;19565;46.602;11.534;2022-12-31T10:40:29;7.80;99.90
33207;DHT22;19565;46.602;11.534;2022-12-31T10:49:52;7.90;99.90
33207;DHT22;19565;46.602;11.534;2022-12-31T10:53:03;7.90;99.90
33207;DHT22;19565;46.602;11.534;2022-12-31T10:55:59;7.90;99.90
33207;DHT22;19565;46.602;11.534;2022-12-31T11:01:47;7.90;99.90
33207;DHT22;19565;46.602;11.534;2022-12-31T11:07:56;7.90;99.90
33207;DHT22;19565;46.602;11.534;2022-12-31T11:10:58;8.00;99.90
33207;DHT22;19565;46.602;11.534;2022-12-31T11:13:52;8.00;99.90
33207;DHT22;19565;46.602;11.534;2022-12-31T11:16:37;8.00;99.90
33207;DHT22;19565;46.602;11.534;2022-12-31T11:19:18;8.10;99.90
33207;DHT22;19565;46.602;11.534;2022-12-31T11:22:15;8.10;99.90
33207;DHT22;19565;46.602;11.534;2022-12-31T11:25:02;8.20;99.90
33207;DHT22;19565;46.602;11.534;2022-12-31T11:27:44;8.20;99.90
33207;DHT22;19565;46.602;11.534;2022-12-31T11:30:20;8.30;99.90
33207;DHT22;19565;46.602;11.534;2022-12-31T11:33:02;8.40;99.90
33207;DHT22;19565;46.602;11.534;2022-12-31T11:35:49;8.40;99.90
33207;DHT22;19565;46.602;11.534;2022-12-31T11:38:24;8.50;99.90
33207;DHT22;19565;46.602;11.534;2022-12-31T11:40:59;8.60;99.90
33207;DHT22;19565;46.602;11.534;2022-12-31T11:43:36;8.60;99.90
33207;DHT22;19565;46.602;11.534;2022-12-31T11:46:19;8.60;99.90
33207;DHT22;19565;46.602;11.534;2022-12-31T11:51:59;8.70;99.90
33207;DHT22;19565;46.602;11.534;2022-12-31T11:54:41;8.70;99.90
33207;DHT22;19565;46.602;11.534;2022-12-31T11:57:21;8.70;99.90
33207;DHT22;19565;46.602;11.534;2022-12-31T11:59:55;8.70;99.90
33207;DHT22;19565;46.602;11.534;2022-12-31T12:02:26;8.70;99.90
33207;DHT22;19565;46.602;11.534;2022-12-31T12:04:58;8.80;99.90
33207;DHT22;19565;46.602;11.534;2022-12-31T12:07:36;8.80;99.90
33207;DHT22;19565;46.602;11.534;2022-12-31T12:10:15;8.80;99.90
33207;DHT22;19565;46.602;11.534;2022-12-31T12:12:45;8.90;99.90
33207;DHT22;19565;46.602;11.534;2022-12-31T12:15:18;8.90;99.90
33207;DHT22;19565;46.602;11.534;2022-12-31T12:17:52;8.90;99.90
33207;DHT22;19565;46.602;11.534;2022-12-31T12:20:27;8.90;99.90
33207;DHT22;19565;46.602;11.534;2022-12-31T12:22:57;8.90;99.90
33207;DHT22;19565;46.602;11.534;2022-12-31T12:25:35;9.00;99.90
33207;DHT22;19565;46.602;11.534;2022-12-31T12:28:17;9.00;99.90
33207;DHT22;19565;46.602;11.534;2022-12-31T12:30:53;9.00;99.90
33207;DHT22;19565;46.602;11.534;2022-12-31T12:33:21;9.00;99.90
33207;DHT22;19565;46.602;11.534;2022-12-31T12:35:49;9.00;99.90
33207;DHT22;19565;46.602;11.534;2022-12-31T12:38:19;9.00;99.90
33207;DHT22;19565;46.602;11.534;2022-12-31T12:40:56;9.00;99.90
33207;DHT22;19565;46.602;11.534;2022-12-31T12:43:28;9.00;99.90
33207;DHT22;19565;46.602;11.534;2022-12-31T12:45:59;9.00;99.90
33207;DHT22;19565;46.602;11.534;2022-12-31T12:48:33;9.10;99.90
33207;DHT22;19565;46.602;11.534;2022-12-31T12:51:12;9.10;99.90
33207;DHT22;19565;46.602;11.534;2022-12-31T12:53:52;9.20;99.90
33207;DHT22;19565;46.602;11.534;2022-12-31T12:56:30;9.20;99.90
33207;DHT22;19565;46.602;11.534;2022-12-31T12:59:24;9.20;99.90
33207;DHT22;19565;46.602;11.534;2022-12-31T13:02:16;9.30;99.90
33207;DHT22;19565;46.602;11.534;2022-12-31T13:05:01;9.30;99.90
33207;DHT22;19565;46.602;11.534;2022-12-31T13:07:40;9.40;99.90
33207;DHT22;19565;46.602;11.534;2022-12-31T13:10:28;9.40;99.90
33207;DHT22;19565;46.602;11.534;2022-12-31T13:13:02;9.40;99.90
33207;DHT22;19565;46.602;11.534;2022-12-31T13:15:55;9.40;99.90
33207;DHT22;19565;46.602;11.534;2022-12-31T13:18:39;9.40;99.90
33207;DHT22;19565;46.602;11.534;2022-12-31T13:21:37;9.40;99.90
33207;DHT22;19565;46.602;11.534;2022-12-31T13:24:17;9.40;99.90
33207;DHT22;19565;46.602;11.534;2022-12-31T13:26:53;9.40;99.90
33207;DHT22;19565;46.602;11.534;2022-12-31T13:29:25;9.30;99.90
33207;DHT22;19565;46.602;11.534;2022-12-31T13:31:57;9.30;99.90
33207;DHT22;19565;46.602;11.534;2022-12-31T13:34:30;9.30;99.90
33207;DHT22;19565;46.602;11.534;2022-12-31T13:37:03;9.40;99.90
33207;DHT22;19565;46.602;11.534;2022-12-31T13:39:37;9.30;99.90
33207;DHT22;19565;46.602;11.534;2022-12-31T13:42:10;9.40;99.90
33207;DHT22;19565;46.602;11.534;2022-12-31T13:44:44;9.30;99.90
33207;DHT22;19565;46.602;11.534;2022-12-31T13:47:19;9.40;99.90
33207;DHT22;19565;46.602;11.534;2022-12-31T13:49:55;9.40;99.90
33207;DHT22;19565;46.602;11.534;2022-12-31T13:52:31;9.40;99.90
33207;DHT22;19565;46.602;11.534;2022-12-31T13:55:10;9.30;99.90
33207;DHT22;19565;46.602;11.534;2022-12-31T13:57:42;9.40;99.90
33207;DHT22;19565;46.602;11.534;2022-12-31T14:00:18;9.40;99.90
33207;DHT22;19565;46.602;11.534;2022-12-31T14:02:54;9.40;99.90
33207;DHT22;19565;46.602;11.534;2022-12-31T14:05:29;9.40;99.90
33207;DHT22;19565;46.602;11.534;2022-12-31T14:08:00;9.40;99.90
33207;DHT22;19565;46.602;11.534;2022-12-31T14:10:46;9.40;99.90
33207;DHT22;19565;46.602;11.534;2022-12-31T14:13:26;9.40;99.90
33207;DHT22;19565;46.602;11.534;2022-12-31T14:16:10;9.40;99.90
33207;DHT22;19565;46.602;11.534;2022-12-31T14:18:48;9.50;99.90
33207;DHT22;19565;46.602;11.534;2022-12-31T14:21:22;9.50;99.90
33207;DHT22;19565;46.602;11.534;2022-12-31T14:23:57;9.40;99.90
33207;DHT22;19565;46.602;11.534;2022-12-31T14:26:30;9.50;99.90
33207;DHT22;19565;46.602;11.534;2022-12-31T14:29:05;9.50;99.90
33207;DHT22;19565;46.602;11.534;2022-12-31T14:31:55;9.40;99.90
33207;DHT22;19565;46.602;11.534;2022-12-31T14:34:34;9.40;99.90
33207;DHT22;19565;46.602;11.534;2022-12-31T14:37:10;9.40;99.90
33207;DHT22;19565;46.602;11.534;2022-12-31T14:39:48;9.40;99.90
33207;DHT22;19565;46.602;11.534;2022-12-31T14:42:26;9.30;99.90
33207;DHT22;19565;46.602;11.534;2022-12-31T14:45:06;9.30;99.90
33207;DHT22;19565;46.602;11.534;2022-12-31T14:47:48;9.20;99.90
33207;DHT22;19565;46.602;11.534;2022-12-31T14:50:23;9.20;99.90
33207;DHT22;19565;46.602;11.534;2022-12-31T14:52:53;9.20;99.90
33207;DHT22;19565;46.602;11.534;2022-12-31T14:55:25;9.20;99.90
33207;DHT22;19565;46.602;11.534;2022-12-31T14:57:54;9.10;99.90
33207;DHT22;19565;46.602;11.534;2022-12-31T15:00:51;9.10;99.90
33207;DHT22;19565;46.602;11.534;2022-12-31T15:03:25;9.10;99.90
33207;DHT22;19565;46.602;11.534;2022-12-31T15:06:00;9.10;99.90
33207;DHT22;19565;46.602;11.534;2022-12-31T15:08:48;9.10;99.90
33207;DHT22;19565;46.602;11.534;2022-12-31T15:11:38;9.10;99.90
33207;DHT22;19565;46.602;11.534;2022-12-31T15:14:32;9.10;99.90
33207;DHT22;19565;46.602;11.534;2022-12-31T15:17:10;9.10;99.90
33207;DHT22;19565;46.602;11.534;2022-12-31T15:19:54;9.10;99.90
33207;DHT22;19565;46.602;11.534;2022-12-31T15:22:34;9.00;99.90
33207;DHT22;19565;46.602;11.534;2022-12-31T15:25:26;9.00;99.90
33207;DHT22;19565;46.602;11.534;2022-12-31T15:28:04;8.90;99.90
33207;DHT22;19565;46.602;11.534;2022-12-31T15:30:35;8.90;99.90
33207;DHT22;19565;46.602;11.534;2022-12-31T15:33:08;8.80;99.90
33207;DHT22;19565;46.602;11.534;2022-12-31T15:35:45;8.80;99.90
33207;DHT22;19565;46.602;11.534;2022-12-31T15:38:33;8.80;99.90
33207;DHT22;19565;46.602;11.534;2022-12-31T15:41:14;8.80;99.90
33207;DHT22;19565;46.602;11.534;2022-12-31T15:43:45;8.70;99.90
33207;DHT22;19565;46.602;11.534;2022-12-31T15:46:17;8.70;99.90
33207;DHT22;19565;46.602;11.534;2022-12-31T15:48:48;8.70;99.90
33207;DHT22;19565;46.602;11.534;2022-12-31T15:51:27;8.60;99.90
33207;DHT22;19565;46.602;11.534;2022-12-31T15:53:58;8.60;99.90
33207;DHT22;19565;46.602;11.534;2022-12-31T15:56:32;8.60;99.90
33207;DHT22;19565;46.602;11.534;2022-12-31T15:59:03;8.50;99.90
33207;DHT22;19565;46.602;11.534;2022-12-31T16:01:34;8.50;99.90
33207;DHT22;19565;46.602;11.534;2022-12-31T16:04:05;8.50;99.90
33207;DHT22;19565;46.602;11.534;2022-12-31T16:06:35;8.40;99.90
33207;DHT22;19565;46.602;11.534;2022-12-31T16:09:08;8.40;99.90
33207;DHT22;19565;46.602;11.534;2022-12-31T16:11:37;8.20;99.90
33207;DHT22;19565;46.602;11.534;2022-12-31T16:14:16;8.30;99.90
33207;DHT22;19565;46.602;11.534;2022-12-31T16:16:51;8.30;99.90
33207;DHT22;19565;46.602;11.534;2022-12-31T16:19:30;8.30;99.90
33207;DHT22;19565;46.602;11.534;2022-12-31T16:22:01;8.20;99.90
33207;DHT22;19565;46.602;11.534;2022-12-31T16:24:34;8.10;99.90
33207;DHT22;19565;46.602;11.534;2022-12-31T16:27:23;8.10;99.90
33207;DHT22;19565;46.602;11.534;2022-12-31T16:29:57;8.10;99.90
33207;DHT22;19565;46.602;11.534;2022-12-31T16:32:33;8.10;99.90
33207;DHT22;19565;46.602;11.534;2022-12-31T16:35:01;8.00;99.90
33207;DHT22;19565;46.602;11.534;2022-12-31T16:37:37;8.00;99.90
33207;DHT22;19565;46.602;11.534;2022-12-31T16:40:17;8.00;99.90
33207;DHT22;19565;46.602;11.534;2022-12-31T16:42:46;8.00;99.90
33207;DHT22;19565;46.602;11.534;2022-12-31T16:45:28;8.00;99.90